sensor_id;sensor_type;location;lat;lon;timestamp;pressure;altitude;pressure_sealevel;temperature;humidity
70434;BME280;57876;47.792;12.960;2023-02-03T00:01:18;97791.22;;;16.38;40.14
70434;BME280;57876;47.792;12.960;2023-02-03T00:03:42;97783.59;;;16.35;39.71
70434;BME280;57876;47.792;12.960;2023-02-03T00:06:07;97796.16;;;16.36;40.15
70434;BME280;57876;47.792;12.960;2023-02-03T00:08:31;97797.56;;;16.34;40.17
70434;BME280;57876;47.792;12.960;2023-02-03T00:10:57;97802.22;;;16.33;39.82
70434;BME280;57876;47.792;12.960;2023-02-03T00:13:22;97798.16;;;16.31;40.11
70434;BME280;57876;47.792;12.960;2023-02-03T00:15:46;97800.03;;;16.30;40.13
70434;BME280;57876;47.792;12.960;2023-02-03T00:18:11;97795.78;;;16.24;39.91
70434;BME280;57876;47.792;12.960;2023-02-03T00:20:35;97801.44;;;16.27;40.05
70434;BME280;57876;47.792;12.960;2023-02-03T00:23:07;97802.88;;;16.25;40.04
70434;BME280;57876;47.792;12.960;2023-02-03T00:25:32;97796.59;;;16.24;39.73
70434;BME280;57876;47.792;12.960;2023-02-03T00:27:57;97812.16;;;16.24;39.75
70434;BME280;57876;47.792;12.960;2023-02-03T00:30:21;97809.75;;;16.22;39.73
70434;BME280;57876;47.792;12.960;2023-02-03T00:32:45;97808.09;;;16.21;40.19
70434;BME280;57876;47.792;12.960;2023-02-03T00:35:10;97799.41;;;16.19;40.28
70434;BME280;57876;47.792;12.960;2023-02-03T00:37:34;97817.69;;;16.19;40.03
70434;BME280;57876;47.792;12.960;2023-02-03T00:39:58;97813.44;;;16.13;39.82
70434;BME280;57876;47.792;12.960;2023-02-03T00:42:23;97802.72;;;16.16;39.77
70434;BME280;57876;47.792;12.960;2023-02-03T00:44:47;97809.31;;;16.15;39.85
70434;BME280;57876;47.792;12.960;2023-02-03T00:47:12;97814.75;;;16.15;40.28
70434;BME280;57876;47.792;12.960;2023-02-03T00:49:36;97803.63;;;16.12;39.89
70434;BME280;57876;47.792;12.960;2023-02-03T00:52:00;97809.09;;;16.12;39.73
70434;BME280;57876;47.792;12.960;2023-02-03T00:54:25;97812.63;;;16.12;40.11
70434;BME280;57876;47.792;12.960;2023-02-03T00:56:49;97809.09;;;16.12;40.10
70434;BME280;57876;47.792;12.960;2023-02-03T00:59:13;97803.09;;;16.10;40.06
70434;BME280;57876;47.792;12.960;2023-02-03T01:01:38;97812.09;;;16.10;40.29
70434;BME280;57876;47.792;12.960;2023-02-03T01:04:02;97797.13;;;16.07;40.11
70434;BME280;57876;47.792;12.960;2023-02-03T01:06:27;97806.44;;;16.06;40.00
70434;BME280;57876;47.792;12.960;2023-02-03T01:08:52;97807.25;;;16.07;40.18
70434;BME280;57876;47.792;12.960;2023-02-03T01:11:22;97801.84;;;16.02;40.40
70434;BME280;57876;47.792;12.960;2023-02-03T01:13:46;97803.19;;;16.04;40.00
70434;BME280;57876;47.792;12.960;2023-02-03T01:16:14;97800.44;;;16.04;39.72
70434;BME280;57876;47.792;12.960;2023-02-03T01:18:40;97799.13;;;16.02;40.32
70434;BME280;57876;47.792;12.960;2023-02-03T01:21:27;97793.16;;;16.00;39.82
70434;BME280;57876;47.792;12.960;2023-02-03T01:23:51;97786.34;;;15.97;40.27
70434;BME280;57876;47.792;12.960;2023-02-03T01:26:18;97788.56;;;15.95;39.99
70434;BME280;57876;47.792;12.960;2023-02-03T01:28:43;97790.41;;;16.00;40.14
70434;BME280;57876;47.792;12.960;2023-02-03T01:31:18;97779.28;;;15.96;40.14
70434;BME280;57876;47.792;12.960;2023-02-03T01:33:44;97789.09;;;15.97;40.17
70434;BME280;57876;47.792;12.960;2023-02-03T01:36:12;97791.28;;;15.95;40.03
70434;BME280;57876;47.792;12.960;2023-02-03T01:38:37;97792.41;;;15.94;39.92
70434;BME280;57876;47.792;12.960;2023-02-03T01:41:03;97780.69;;;15.94;40.11
70434;BME280;57876;47.792;12.960;2023-02-03T01:43:36;97779.06;;;15.93;40.10
70434;BME280;57876;47.792;12.960;2023-02-03T01:46:05;97788.06;;;15.93;40.29
70434;BME280;57876;47.792;12.960;2023-02-03T01:48:31;97795.41;;;15.93;40.11
70434;BME280;57876;47.792;12.960;2023-02-03T01:50:59;97799.06;;;15.88;40.34
70434;BME280;57876;47.792;12.960;2023-02-03T01:53:25;97792.47;;;15.89;40.27
70434;BME280;57876;47.792;12.960;2023-02-03T01:55:50;97791.94;;;15.87;40.13
70434;BME280;57876;47.792;12.960;2023-02-03T01:58:24;97806.13;;;15.89;40.08
70434;BME280;57876;47.792;12.960;2023-02-03T02:00:52;97794.19;;;15.85;39.75
70434;BME280;57876;47.792;12.960;2023-02-03T02:03:20;97794.75;;;15.82;40.22
70434;BME280;57876;47.792;12.960;2023-02-03T02:05:53;97799.66;;;15.85;40.16
70434;BME280;57876;47.792;12.960;2023-02-03T02:08:20;97787.41;;;15.82;40.06
70434;BME280;57876;47.792;12.960;2023-02-03T02:10:46;97787.41;;;15.82;40.28
70434;BME280;57876;47.792;12.960;2023-02-03T02:13:11;97784.44;;;15.79;40.08
70434;BME280;57876;47.792;12.960;2023-02-03T02:16:02;97790.94;;;15.83;40.20
70434;BME280;57876;47.792;12.960;2023-02-03T02:32:34;97776.25;;;15.79;39.90
70434;BME280;57876;47.792;12.960;2023-02-03T02:38:15;97765.94;;;15.76;39.89
70434;BME280;57876;47.792;12.960;2023-02-03T02:40:53;97767.06;;;15.75;39.80
70434;BME280;57876;47.792;12.960;2023-02-03T02:43:38;97769.25;;;15.73;40.13
70434;BME280;57876;47.792;12.960;2023-02-03T02:46:13;97758.94;;;15.70;40.05
70434;BME280;57876;47.792;12.960;2023-02-03T02:51:49;97758.94;;;15.70;39.95
70434;BME280;57876;47.792;12.960;2023-02-03T02:54:18;97758.66;;;15.66;40.49
70434;BME280;57876;47.792;12.960;2023-02-03T02:56:48;97764.09;;;15.71;40.08
70434;BME280;57876;47.792;12.960;2023-02-03T02:59:13;97753.47;;;15.70;40.22
70434;BME280;57876;47.792;12.960;2023-02-03T03:01:38;97746.91;;;15.71;40.23
70434;BME280;57876;47.792;12.960;2023-02-03T03:04:04;97762.75;;;15.69;40.23
70434;BME280;57876;47.792;12.960;2023-02-03T03:06:40;97772.00;;;15.68;40.07
70434;BME280;57876;47.792;12.960;2023-02-03T03:09:20;97773.66;;;15.69;40.17
70434;BME280;57876;47.792;12.960;2023-02-03T03:11:59;97768.75;;;15.66;40.05
70434;BME280;57876;47.792;12.960;2023-02-03T03:14:28;97772.59;;;15.64;40.27
70434;BME280;57876;47.792;12.960;2023-02-03T03:16:58;97763.91;;;15.62;40.57
70434;BME280;57876;47.792;12.960;2023-02-03T03:19:30;97756.84;;;15.61;39.92
70434;BME280;57876;47.792;12.960;2023-02-03T03:21:59;97759.56;;;15.61;40.23
70434;BME280;57876;47.792;12.960;2023-02-03T03:24:31;97766.34;;;15.64;40.26
70434;BME280;57876;47.792;12.960;2023-02-03T03:27:09;97758.44;;;15.62;40.26
70434;BME280;57876;47.792;12.960;2023-02-03T03:29:56;97764.19;;;15.61;40.37
70434;BME280;57876;47.792;12.960;2023-02-03T03:32:21;97756.59;;;15.58;40.50
70434;BME280;57876;47.792;12.960;2023-02-03T03:34:46;97775.09;;;15.61;40.06
70434;BME280;57876;47.792;12.960;2023-02-03T03:40:01;97764.78;;;15.58;40.27
70434;BME280;57876;47.792;12.960;2023-02-03T03:42:40;97750.34;;;15.57;40.35
70434;BME280;57876;47.792;12.960;2023-02-03T03:50:16;97760.97;;;15.59;40.34
70434;BME280;57876;47.792;12.960;2023-02-03T03:52:43;97761.25;;;15.57;40.41
70434;BME280;57876;47.792;12.960;2023-02-03T03:55:10;97768.63;;;15.57;40.31
70434;BME280;57876;47.792;12.960;2023-02-03T03:57:39;97761.84;;;15.54;40.51
70434;BME280;57876;47.792;12.960;2023-02-03T04:00:07;97778.19;;;15.54;40.48
70434;BME280;57876;47.792;12.960;2023-02-03T04:02:33;97758.00;;;15.55;40.38
70434;BME280;57876;47.792;12.960;2023-02-03T04:05:01;97753.13;;;15.52;40.30
70434;BME280;57876;47.792;12.960;2023-02-03T04:07:41;97763.22;;;15.52;40.31
70434;BME280;57876;47.792;12.960;2023-02-03T04:10:19;97750.41;;;15.52;40.43
70434;BME280;57876;47.792;12.960;2023-02-03T04:12:45;97760.22;;;15.53;40.18
70434;BME280;57876;47.792;12.960;2023-02-03T04:15:09;97754.75;;;15.53;40.21
70434;BME280;57876;47.792;12.960;2023-02-03T04:17:34;97743.34;;;15.51;40.21
70434;BME280;57876;47.792;12.960;2023-02-03T04:19:59;97742.22;;;15.52;40.51
70434;BME280;57876;47.792;12.960;2023-02-03T04:22:23;97734.34;;;15.51;40.27
70434;BME280;57876;47.792;12.960;2023-02-03T04:24:48;97739.81;;;15.51;40.30
70434;BME280;57876;47.792;12.960;2023-02-03T04:27:12;97736.25;;;15.50;40.31
70434;BME280;57876;47.792;12.960;2023-02-03T04:29:36;97746.66;;;15.48;40.02
70434;BME280;57876;47.792;12.960;2023-02-03T04:32:01;97748.84;;;15.46;40.21
70434;BME280;57876;47.792;12.960;2023-02-03T04:34:25;97755.63;;;15.49;40.03
70434;BME280;57876;47.792;12.960;2023-02-03T04:36:50;97753.72;;;15.49;40.40
70434;BME280;57876;47.792;12.960;2023-02-03T04:39:14;97739.03;;;15.45;40.46
70434;BME280;57876;47.792;12.960;2023-02-03T04:41:38;97748.84;;;15.46;40.56
70434;BME280;57876;47.792;12.960;2023-02-03T04:44:03;97748.06;;;15.46;40.46
70434;BME280;57876;47.792;12.960;2023-02-03T04:46:27;97751.59;;;15.46;40.39
70434;BME280;57876;47.792;12.960;2023-02-03T04:48:52;97757.03;;;15.46;40.33
70434;BME280;57876;47.792;12.960;2023-02-03T04:51:16;97762.75;;;15.45;39.98
70434;BME280;57876;47.792;12.960;2023-02-03T04:53:40;97772.59;;;15.46;40.20
70434;BME280;57876;47.792;12.960;2023-02-03T04:56:05;97767.41;;;15.44;40.15
70434;BME280;57876;47.792;12.960;2023-02-03T04:58:29;97765.22;;;15.46;40.30
70434;BME280;57876;47.792;12.960;2023-02-03T05:00:54;97762.50;;;15.46;40.31
70434;BME280;57876;47.792;12.960;2023-02-03T05:03:19;97752.66;;;15.45;40.44
70434;BME280;57876;47.792;12.960;2023-02-03T05:05:43;97759.22;;;15.44;40.31
70434;BME280;57876;47.792;12.960;2023-02-03T05:08:07;97758.13;;;15.45;40.26
70434;BME280;57876;47.792;12.960;2023-02-03T05:10:32;97759.22;;;15.44;40.36
70434;BME280;57876;47.792;12.960;2023-02-03T05:12:56;97772.06;;;15.44;40.47
70434;BME280;57876;47.792;12.960;2023-02-03T05:15:21;97781.34;;;15.43;40.17
70434;BME280;57876;47.792;12.960;2023-02-03T05:17:45;97784.88;;;15.43;40.34
70434;BME280;57876;47.792;12.960;2023-02-03T05:20:10;97789.53;;;15.43;40.56
70434;BME280;57876;47.792;12.960;2023-02-03T05:22:34;97806.69;;;15.43;40.47
70434;BME280;57876;47.792;12.960;2023-02-03T05:24:59;97792.25;;;15.43;40.17
70434;BME280;57876;47.792;12.960;2023-02-03T05:27:23;97789.00;;;15.40;40.30
70434;BME280;57876;47.792;12.960;2023-02-03T05:29:47;97786.56;;;15.39;40.33
70434;BME280;57876;47.792;12.960;2023-02-03T05:32:12;97786.28;;;15.40;40.52
70434;BME280;57876;47.792;12.960;2023-02-03T05:34:36;97780.03;;;15.40;40.51
70434;BME280;57876;47.792;12.960;2023-02-03T05:37:00;97776.19;;;15.41;40.40
70434;BME280;57876;47.792;12.960;2023-02-03T05:39:26;97768.53;;;15.43;40.36
70434;BME280;57876;47.792;12.960;2023-02-03T05:41:50;97774.47;;;15.45;40.40
70434;BME280;57876;47.792;12.960;2023-02-03T05:44:15;97770.88;;;15.50;40.29
70434;BME280;57876;47.792;12.960;2023-02-03T05:46:39;97777.06;;;15.55;39.97
70434;BME280;57876;47.792;12.960;2023-02-03T05:49:04;97773.19;;;15.61;40.33
70434;BME280;57876;47.792;12.960;2023-02-03T05:51:28;97774.75;;;15.68;40.24
70434;BME280;57876;47.792;12.960;2023-02-03T05:53:53;97770.66;;;15.70;40.34
70434;BME280;57876;47.792;12.960;2023-02-03T05:56:17;97777.38;;;15.78;40.12
70434;BME280;57876;47.792;12.960;2023-02-03T05:58:41;97775.66;;;15.82;40.24
70434;BME280;57876;47.792;12.960;2023-02-03T06:01:06;97752.97;;;15.87;39.92
70434;BME280;57876;47.792;12.960;2023-02-03T06:03:30;97764.38;;;15.89;40.21
70434;BME280;57876;47.792;12.960;2023-02-03T06:05:55;97747.16;;;15.93;40.30
70434;BME280;57876;47.792;12.960;2023-02-03T06:08:19;97751.19;;;15.96;40.17
70434;BME280;57876;47.792;12.960;2023-02-03T06:10:43;97756.06;;;15.99;40.35
70434;BME280;57876;47.792;12.960;2023-02-03T06:13:10;97745.94;;;15.99;40.44
70434;BME280;57876;47.792;12.960;2023-02-03T06:15:34;97746.16;;;16.03;40.43
70434;BME280;57876;47.792;12.960;2023-02-03T06:17:59;97745.06;;;16.04;39.91
70434;BME280;57876;47.792;12.960;2023-02-03T06:20:23;97728.97;;;16.02;40.26
70434;BME280;57876;47.792;12.960;2023-02-03T06:22:47;97733.84;;;16.05;40.42
70434;BME280;57876;47.792;12.960;2023-02-03T06:25:12;97736.81;;;16.09;40.21
70434;BME280;57876;47.792;12.960;2023-02-03T06:27:37;97736.22;;;16.12;40.31
70434;BME280;57876;47.792;12.960;2023-02-03T06:30:02;97743.00;;;16.15;40.12
70434;BME280;57876;47.792;12.960;2023-02-03T06:32:27;97742.06;;;16.19;40.44
70434;BME280;57876;47.792;12.960;2023-02-03T06:34:52;97734.72;;;16.20;40.27
70434;BME280;57876;47.792;12.960;2023-02-03T06:37:16;97743.91;;;16.24;39.94
70434;BME280;57876;47.792;12.960;2023-02-03T06:39:40;97755.34;;;16.26;40.39
70434;BME280;57876;47.792;12.960;2023-02-03T06:42:05;97752.63;;;16.26;40.09
70434;BME280;57876;47.792;12.960;2023-02-03T06:44:30;97754.25;;;16.27;40.22
70434;BME280;57876;47.792;12.960;2023-02-03T06:46:54;97753.16;;;16.28;40.18
70434;BME280;57876;47.792;12.960;2023-02-03T06:49:19;97742.72;;;16.30;40.47
70434;BME280;57876;47.792;12.960;2023-02-03T06:51:44;97747.91;;;16.32;40.09
70434;BME280;57876;47.792;12.960;2023-02-03T06:54:10;97746.50;;;16.34;40.34
70434;BME280;57876;47.792;12.960;2023-02-03T06:56:35;97750.34;;;16.33;40.00
70434;BME280;57876;47.792;12.960;2023-02-03T06:58:59;97753.56;;;16.35;40.03
70434;BME280;57876;47.792;12.960;2023-02-03T07:01:23;97775.03;;;16.42;40.36
70434;BME280;57876;47.792;12.960;2023-02-03T07:03:49;97761.06;;;16.43;40.37
70434;BME280;57876;47.792;12.960;2023-02-03T07:06:13;97760.78;;;16.45;39.97
70434;BME280;57876;47.792;12.960;2023-02-03T07:08:38;97764.31;;;16.45;40.05
70434;BME280;57876;47.792;12.960;2023-02-03T07:11:02;97747.13;;;16.45;40.52
70434;BME280;57876;47.792;12.960;2023-02-03T07:13:27;97753.38;;;16.45;40.07
70434;BME280;57876;47.792;12.960;2023-02-03T07:15:51;97756.94;;;16.46;40.57
70434;BME280;57876;47.792;12.960;2023-02-03T07:18:16;97762.72;;;16.44;40.34
70434;BME280;57876;47.792;12.960;2023-02-03T07:20:42;97759.97;;;16.44;40.15
70434;BME280;57876;47.792;12.960;2023-02-03T07:23:07;97762.19;;;16.42;40.49
70434;BME280;57876;47.792;12.960;2023-02-03T07:25:31;97765.94;;;16.46;40.15
70434;BME280;57876;47.792;12.960;2023-02-03T07:27:56;97773.03;;;16.47;40.20
70434;BME280;57876;47.792;12.960;2023-02-03T07:30:20;97777.06;;;16.50;40.18
70434;BME280;57876;47.792;12.960;2023-02-03T07:32:46;97768.59;;;16.51;40.22
70434;BME280;57876;47.792;12.960;2023-02-03T07:35:11;97777.28;;;16.54;40.31
70434;BME280;57876;47.792;12.960;2023-02-03T07:37:35;97775.34;;;16.54;40.17
70434;BME280;57876;47.792;12.960;2023-02-03T07:40:00;97770.41;;;16.56;40.50
70434;BME280;57876;47.792;12.960;2023-02-03T07:42:24;97749.06;;;16.58;40.34
70434;BME280;57876;47.792;12.960;2023-02-03T07:44:48;97735.72;;;16.57;40.73
70434;BME280;57876;47.792;12.960;2023-02-03T07:47:13;97732.97;;;16.57;40.26
70434;BME280;57876;47.792;12.960;2023-02-03T07:49:37;97746.63;;;16.57;39.97
70434;BME280;57876;47.792;12.960;2023-02-03T07:52:02;97743.63;;;16.58;40.01
70434;BME280;57876;47.792;12.960;2023-02-03T07:54:26;97737.88;;;16.60;40.12
70434;BME280;57876;47.792;12.960;2023-02-03T07:56:50;97725.81;;;16.61;40.04
70434;BME280;57876;47.792;12.960;2023-02-03T07:59:16;97737.25;;;16.63;39.90
70434;BME280;57876;47.792;12.960;2023-02-03T08:01:40;97734.00;;;16.61;40.45
70434;BME280;57876;47.792;12.960;2023-02-03T08:04:04;97721.97;;;16.62;40.25
70434;BME280;57876;47.792;12.960;2023-02-03T08:06:29;97727.44;;;16.62;40.31
70434;BME280;57876;47.792;12.960;2023-02-03T08:08:53;97709.94;;;16.63;40.07
70434;BME280;57876;47.792;12.960;2023-02-03T08:11:18;97708.31;;;16.62;39.88
70434;BME280;57876;47.792;12.960;2023-02-03T08:13:42;97720.06;;;16.62;40.13
70434;BME280;57876;47.792;12.960;2023-02-03T08:16:06;97703.38;;;16.64;40.50
70434;BME280;57876;47.792;12.960;2023-02-03T08:18:31;97699.03;;;16.63;40.39
70434;BME280;57876;47.792;12.960;2023-02-03T08:20:55;97697.38;;;16.62;40.02
70434;BME280;57876;47.792;12.960;2023-02-03T08:23:19;97686.47;;;16.62;40.22
70434;BME280;57876;47.792;12.960;2023-02-03T08:25:44;97667.34;;;16.62;39.90
70434;BME280;57876;47.792;12.960;2023-02-03T08:28:08;97667.66;;;16.60;40.34
70434;BME280;57876;47.792;12.960;2023-02-03T08:30:33;97671.19;;;16.61;40.36
70434;BME280;57876;47.792;12.960;2023-02-03T08:32:57;97648.22;;;16.62;39.88
70434;BME280;57876;47.792;12.960;2023-02-03T08:35:21;97667.66;;;16.60;40.19
70434;BME280;57876;47.792;12.960;2023-02-03T08:37:46;97655.31;;;16.63;40.25
70434;BME280;57876;47.792;12.960;2023-02-03T08:40:11;97676.38;;;16.62;40.06
70434;BME280;57876;47.792;12.960;2023-02-03T08:42:36;97689.09;;;16.67;40.32
70434;BME280;57876;47.792;12.960;2023-02-03T08:45:00;97699.41;;;16.70;40.22
70434;BME280;57876;47.792;12.960;2023-02-03T08:47:25;97713.59;;;16.72;40.27
70434;BME280;57876;47.792;12.960;2023-02-03T08:49:49;97719.56;;;16.74;40.35
70434;BME280;57876;47.792;12.960;2023-02-03T08:52:14;97717.63;;;16.74;40.24
70434;BME280;57876;47.792;12.960;2023-02-03T08:54:39;97723.72;;;16.71;39.90
70434;BME280;57876;47.792;12.960;2023-02-03T08:57:03;97727.25;;;16.72;39.85
70434;BME280;57876;47.792;12.960;2023-02-03T08:59:28;97726.25;;;16.68;39.77
70434;BME280;57876;47.792;12.960;2023-02-03T09:01:53;97737.09;;;16.73;40.24
70434;BME280;57876;47.792;12.960;2023-02-03T09:04:18;97744.16;;;16.74;40.17
70434;BME280;57876;47.792;12.960;2023-02-03T09:06:48;97729.69;;;16.73;39.83
70434;BME280;57876;47.792;12.960;2023-02-03T09:09:13;97744.97;;;16.74;39.91
70434;BME280;57876;47.792;12.960;2023-02-03T09:11:40;97730.78;;;16.72;40.12
70434;BME280;57876;47.792;12.960;2023-02-03T09:14:04;97723.09;;;16.74;40.08
70434;BME280;57876;47.792;12.960;2023-02-03T09:16:29;97722.31;;;16.74;39.98
70434;BME280;57876;47.792;12.960;2023-02-03T09:18:54;97732.94;;;16.76;40.00
70434;BME280;57876;47.792;12.960;2023-02-03T09:21:18;97727.75;;;16.74;40.00
70434;BME280;57876;47.792;12.960;2023-02-03T09:23:43;97713.81;;;16.76;40.35
70434;BME280;57876;47.792;12.960;2023-02-03T09:26:11;97703.47;;;16.72;40.04
70434;BME280;57876;47.792;12.960;2023-02-03T09:28:36;97708.06;;;16.77;39.79
70434;BME280;57876;47.792;12.960;2023-02-03T09:31:08;97706.97;;;16.78;40.08
70434;BME280;57876;47.792;12.960;2023-02-03T09:33:34;97693.94;;;16.70;39.75
70434;BME280;57876;47.792;12.960;2023-02-03T09:35:58;97714.03;;;16.79;40.08
70434;BME280;57876;47.792;12.960;2023-02-03T09:38:24;97701.50;;;16.78;39.83
70434;BME280;57876;47.792;12.960;2023-02-03T09:40:53;97707.50;;;16.75;39.91
70434;BME280;57876;47.792;12.960;2023-02-03T09:43:42;97704.50;;;16.77;39.76
70434;BME280;57876;47.792;12.960;2023-02-03T09:46:22;97698.84;;;16.73;39.85
70434;BME280;57876;47.792;12.960;2023-02-03T09:49:05;97714.09;;;16.74;40.29
70434;BME280;57876;47.792;12.960;2023-02-03T09:51:54;97707.59;;;16.70;40.08
70434;BME280;57876;47.792;12.960;2023-02-03T09:57:04;97725.03;;;16.74;39.93
70434;BME280;57876;47.792;12.960;2023-02-03T09:59:32;97713.31;;;16.73;40.14
70434;BME280;57876;47.792;12.960;2023-02-03T10:02:26;97709.97;;;16.77;40.23
70434;BME280;57876;47.792;12.960;2023-02-03T10:17:38;97690.00;;;17.95;39.38
70434;BME280;57876;47.792;12.960;2023-02-03T10:20:12;97701.19;;;18.30;39.15
70434;BME280;57876;47.792;12.960;2023-02-03T10:22:43;97699.16;;;18.44;38.55
70434;BME280;57876;47.792;12.960;2023-02-03T10:25:30;97700.22;;;18.66;38.83
70434;BME280;57876;47.792;12.960;2023-02-03T10:28:00;97671.44;;;18.77;38.43
70434;BME280;57876;47.792;12.960;2023-02-03T10:30:30;97677.16;;;18.89;38.38
70434;BME280;57876;47.792;12.960;2023-02-03T10:33:09;97678.81;;;18.99;38.17
70434;BME280;57876;47.792;12.960;2023-02-03T10:41:04;97639.16;;;19.23;37.95
70434;BME280;57876;47.792;12.960;2023-02-03T10:43:30;97639.34;;;19.26;37.93
70434;BME280;57876;47.792;12.960;2023-02-03T10:46:10;97647.56;;;19.18;38.00
70434;BME280;57876;47.792;12.960;2023-02-03T10:48:35;97615.66;;;18.73;38.26
70434;BME280;57876;47.792;12.960;2023-02-03T10:51:00;97648.28;;;18.52;38.43
70434;BME280;57876;47.792;12.960;2023-02-03T10:53:33;97633.00;;;18.29;38.93
70434;BME280;57876;47.792;12.960;2023-02-03T10:58:29;97646.38;;;17.99;38.82
70434;BME280;57876;47.792;12.960;2023-02-03T11:01:25;97641.28;;;17.83;38.76
70434;BME280;57876;47.792;12.960;2023-02-03T11:04:01;97625.09;;;18.27;38.75
70434;BME280;57876;47.792;12.960;2023-02-03T11:06:27;97648.44;;;18.56;38.53
70434;BME280;57876;47.792;12.960;2023-02-03T11:08:52;97627.81;;;18.81;38.23
70434;BME280;57876;47.792;12.960;2023-02-03T11:11:24;97649.47;;;19.00;38.29
70434;BME280;57876;47.792;12.960;2023-02-03T11:14:15;97627.22;;;19.19;37.97
70434;BME280;57876;47.792;12.960;2023-02-03T11:16:40;97618.22;;;19.27;37.83
70434;BME280;57876;47.792;12.960;2023-02-03T11:19:06;97644.53;;;19.36;37.67
70434;BME280;57876;47.792;12.960;2023-02-03T11:26:33;97616.13;;;19.50;37.37
70434;BME280;57876;47.792;12.960;2023-02-03T11:29:00;97619.81;;;19.28;37.31
70434;BME280;57876;47.792;12.960;2023-02-03T11:31:28;97632.66;;;18.92;37.64
70434;BME280;57876;47.792;12.960;2023-02-03T11:33:56;97615.63;;;18.64;37.75
70434;BME280;57876;47.792;12.960;2023-02-03T11:36:27;97629.88;;;18.44;37.86
70434;BME280;57876;47.792;12.960;2023-02-03T11:39:07;97620.25;;;18.24;37.73
70434;BME280;57876;47.792;12.960;2023-02-03T11:41:38;97626.31;;;18.12;38.16
70434;BME280;57876;47.792;12.960;2023-02-03T11:44:11;97627.72;;;18.01;37.92
70434;BME280;57876;47.792;12.960;2023-02-03T11:46:38;97614.28;;;17.91;38.31
70434;BME280;57876;47.792;12.960;2023-02-03T11:49:15;97615.66;;;17.79;38.39
70434;BME280;57876;47.792;12.960;2023-02-03T11:54:47;97613.13;;;17.69;38.18
70434;BME280;57876;47.792;12.960;2023-02-03T11:57:43;97589.75;;;17.63;38.68
70434;BME280;57876;47.792;12.960;2023-02-03T12:00:20;97599.53;;;17.55;38.62
70434;BME280;57876;47.792;12.960;2023-02-03T12:24:08;97533.38;;;17.31;38.70
70434;BME280;57876;47.792;12.960;2023-02-03T12:29:15;97528.50;;;17.28;38.57
70434;BME280;57876;47.792;12.960;2023-02-03T12:34:23;97517.41;;;17.24;38.61
70434;BME280;57876;47.792;12.960;2023-02-03T12:37:01;97508.19;;;17.20;38.92
70434;BME280;57876;47.792;12.960;2023-02-03T12:39:58;97516.41;;;17.20;38.87
70434;BME280;57876;47.792;12.960;2023-02-03T12:42:34;97512.34;;;17.17;38.97
70434;BME280;57876;47.792;12.960;2023-02-03T12:47:46;97491.44;;;17.13;39.03
70434;BME280;57876;47.792;12.960;2023-02-03T12:50:21;97466.22;;;17.16;38.64
70434;BME280;57876;47.792;12.960;2023-02-03T12:52:57;97465.09;;;17.17;38.74
70434;BME280;57876;47.792;12.960;2023-02-03T12:58:00;97450.63;;;17.16;38.60
70434;BME280;57876;47.792;12.960;2023-02-03T13:00:29;97447.59;;;17.18;38.67
70434;BME280;57876;47.792;12.960;2023-02-03T13:08:30;97403.97;;;17.13;38.81
70434;BME280;57876;47.792;12.960;2023-02-03T13:11:06;97397.66;;;17.12;39.04
70434;BME280;57876;47.792;12.960;2023-02-03T13:13:35;97402.34;;;17.12;38.87
70434;BME280;57876;47.792;12.960;2023-02-03T13:16:05;97387.06;;;17.11;39.01
70434;BME280;57876;47.792;12.960;2023-02-03T13:18:34;97385.94;;;17.12;38.71
70434;BME280;57876;47.792;12.960;2023-02-03T13:20:59;97363.56;;;17.10;38.80
70434;BME280;57876;47.792;12.960;2023-02-03T13:23:24;97379.97;;;17.10;39.11
70434;BME280;57876;47.792;12.960;2023-02-03T13:42:30;97370.00;;;17.05;39.18
70434;BME280;57876;47.792;12.960;2023-02-03T13:45:44;97365.63;;;17.04;39.28
70434;BME280;57876;47.792;12.960;2023-02-03T13:47:48;97355.53;;;17.05;39.26
70434;BME280;57876;47.792;12.960;2023-02-03T13:50:25;97357.13;;;17.06;38.94
70434;BME280;57876;47.792;12.960;2023-02-03T13:53:18;97348.44;;;17.04;38.88
70434;BME280;57876;47.792;12.960;2023-02-03T13:56:01;97351.66;;;17.06;39.35
70434;BME280;57876;47.792;12.960;2023-02-03T13:58:32;97345.53;;;17.00;39.06
70434;BME280;57876;47.792;12.960;2023-02-03T14:01:01;97347.00;;;17.06;39.13
70434;BME280;57876;47.792;12.960;2023-02-03T14:05:55;97330.44;;;17.03;39.16
70434;BME280;57876;47.792;12.960;2023-02-03T14:16:44;97290.09;;;17.00;39.17
70434;BME280;57876;47.792;12.960;2023-02-03T14:19:12;97270.94;;;17.00;39.20
70434;BME280;57876;47.792;12.960;2023-02-03T14:22:04;97264.66;;;16.99;39.31
70434;BME280;57876;47.792;12.960;2023-02-03T14:24:37;97261.63;;;17.01;38.92
70434;BME280;57876;47.792;12.960;2023-02-03T14:27:04;97256.66;;;17.03;39.46
70434;BME280;57876;47.792;12.960;2023-02-03T14:29:33;97251.69;;;17.05;38.99
70434;BME280;57876;47.792;12.960;2023-02-03T14:32:00;97256.66;;;17.03;39.05
70434;BME280;57876;47.792;12.960;2023-02-03T14:34:31;97225.97;;;17.06;38.95
70434;BME280;57876;47.792;12.960;2023-02-03T14:36:56;97225.47;;;17.04;39.10
70434;BME280;57876;47.792;12.960;2023-02-03T14:39:43;97212.28;;;17.06;39.18
70434;BME280;57876;47.792;12.960;2023-02-03T14:45:27;97201.66;;;17.04;39.31
70434;BME280;57876;47.792;12.960;2023-02-03T14:48:38;97200.88;;;17.04;39.44
70434;BME280;57876;47.792;12.960;2023-02-03T15:04:30;97177.22;;;16.99;39.29
70434;BME280;57876;47.792;12.960;2023-02-03T15:06:55;97157.28;;;16.99;39.41
70434;BME280;57876;47.792;12.960;2023-02-03T15:09:41;97171.59;;;16.95;39.49
70434;BME280;57876;47.792;12.960;2023-02-03T15:12:16;97167.72;;;16.97;39.15
70434;BME280;57876;47.792;12.960;2023-02-03T15:14:40;97183.97;;;17.02;39.15
70434;BME280;57876;47.792;12.960;2023-02-03T15:17:22;97168.56;;;17.06;39.67